Terminal Aerodrome Forecast
Issued by NWS Portland, OR

Home | Current Version | Previous Version | Text Only | Print | Product List | Glossary On
Versions: 1 2 3 4 5 6 7 8 9 10 11 12 13 14 15 16 17 18 19 20 21 22
000
FTUS46 KPQR 301748 AAA
TAFEUG
TAF AMD
KEUG 301748Z 3018/3118 23004KT 3SM BR SCT002 SCT050 BKN100
     FM302100 17004KT 3SM -RA BR SCT015 BKN050
     FM302300 19004KT 6SM -RA OVC050
     FM310400 VRB04KT 4SM -RA BR BKN015 OVC035=

USA.gov is the U.S. government's official web portal to all federal, state and local government web resources and services.